Home > Products > Valid Products > TAF

000
FTUS42 KCHS 010520
TAFCHS
TAF
KCHS 010520Z 0106/0206 00000KT P6SM BKN200
     FM011400 13006KT P6SM SCT040
     FM011800 18012G18KT P6SM SCT050
     FM020300 19010KT P6SM SCT030 BKN060=



000
FTUS42 KCHS 010520
TAFSAV
TAF
KSAV 010520Z 0106/0206 00000KT P6SM BKN200
     FM011400 13005KT P6SM BKN200
     FM011800 16010KT P6SM FEW050
     FM020300 19008KT P6SM SCT030 BKN080=



000
FTUS42 KCHS 312327
TAFSAV
TAF
KSAV 312327Z 0100/0124 00000KT P6SM SCT250
     FM011400 13005KT P6SM BKN200
     FM011800 16011KT P6SM FEW050 BKN250=



000
FTUS42 KCHS 312327
TAFCHS
TAF
KCHS 312327Z 0100/0124 00000KT P6SM BKN250
     FM011400 13006KT P6SM FEW040 BKN200
     FM011800 18012G17KT P6SM SCT050 BKN250=



000
FTUS42 KCHS 311738
TAFSAV
TAF
KSAV 311738Z 3118/0118 10006KT P6SM SCT250
     FM010000 VRB03KT P6SM BKN250
     FM011600 15008KT P6SM FEW050 BKN200=



000
FTUS42 KCHS 311738
TAFCHS
TAF
KCHS 311738Z 3118/0118 06006KT P6SM FEW250
     FM312100 VRB03KT P6SM SCT250
     FM011600 16008KT P6SM FEW050 BKN200=



000
FTUS42 KCHS 311120
TAFCHS
TAF
KCHS 311120Z 3112/0112 02005KT P6SM SKC
     FM312100 VRB03KT P6SM SKC=



000
FTUS42 KCHS 311120
TAFSAV
TAF
KSAV 311120Z 3112/0112 03004KT P6SM FEW250
     FM311900 11005KT P6SM SCT250
     FM010000 VRB03KT P6SM SCT250=



000
FTUS42 KCHS 310521
TAFCHS
TAF
KCHS 310521Z 3106/0106 01005KT P6SM SKC
     FM312100 VRB03KT P6SM SKC=



000
FTUS42 KCHS 310521
TAFSAV
TAF
KSAV 310521Z 3106/0106 03004KT P6SM FEW250
     FM311900 11005KT P6SM SKC=



000
FTUS42 KCHS 302332
TAFCHS
TAF
KCHS 302332Z 3100/3124 36007KT P6SM FEW250
     FM311200 02007KT P6SM SCT250=



000
FTUS42 KCHS 302332
TAFSAV
TAF
KSAV 302332Z 3100/3124 35006KT P6SM FEW250
     FM311400 06006KT P6SM SKC=



000
FTUS42 KCHS 301736
TAFSAV
TAF
KSAV 301736Z 3018/3118 32013G20KT P6SM SKC
     FM302230 35004KT P6SM SKC=



000
FTUS42 KCHS 301736
TAFCHS
TAF
KCHS 301736Z 3018/3118 33014G22KT P6SM SKC
     FM302230 36007KT P6SM SKC=



000
FTUS42 KCHS 301135
TAFSAV
TAF
KSAV 301135Z 3012/3112 26004KT P6SM BKN100 WS020/25035KT
     FM301400 32014G23KT P6SM SKC
     FM302100 31005KT P6SM SKC=



000
FTUS42 KCHS 301135
TAFCHS
TAF
KCHS 301135Z 3012/3112 27008KT P6SM VCSH BKN050 WS020/25035KT
     FM301300 32013G22KT P6SM SKC
     FM302100 32006KT P6SM SKC=



000
FTUS42 KCHS 300520
TAFSAV
TAF
KSAV 300520Z 3006/3106 20004KT P6SM SCT050 BKN120 WS020/25035KT
     FM301400 32014G23KT P6SM SKC
     FM302100 31005KT P6SM SKC=



000
FTUS42 KCHS 300520
TAFCHS
TAF
KCHS 300520Z 3006/3106 22004KT P6SM SCT040 BKN120 WS020/25035KT
     FM301300 33013G22KT P6SM SKC
     FM302100 32006KT P6SM SKC=



000
FTUS42 KCHS 300150 AAA
TAFSAV
TAF AMD
KSAV 300150Z 3002/3024 19005KT P6SM SCT080 OVC120 WS010/23035KT
      TEMPO 3003/3007 -SHRA
     FM300700 23009KT P6SM BKN035 OVC080 WS010/26040KT
      TEMPO 3007/3011 -SHRA BKN030
     FM301400 32014G23KT P6SM FEW030=



000
FTUS42 KCHS 300149 AAA
TAFCHS
TAF AMD
KCHS 300149Z 3002/3024 19007KT P6SM SCT080 OVC120 WS010/22030KT
      TEMPO 3002/3006 -SHRA
     FM300600 23008KT P6SM BKN035 OVC080 WS010/25035KT
      TEMPO 3007/3011 6SM -SHRA BKN030
     FM301400 33013G22KT P6SM FEW030=



000
FTUS42 KCHS 292335
TAFSAV
TAF
KSAV 292335Z 3000/3024 17005KT P6SM SCT120 BKN200
     FM300300 20005KT P6SM SCT080 OVC120 WS010/23035KT
      TEMPO 3003/3007 -SHRA
     FM300700 24009KT P6SM BKN035 OVC080 WS010/26040KT
      TEMPO 3007/3011 -SHRA BKN030
     FM301400 32014G23KT P6SM FEW030=



000
FTUS42 KCHS 292335
TAFCHS
TAF
KCHS 292335Z 3000/3024 19007KT P6SM SCT120 BKN200
     FM300200 22007KT P6SM SCT080 OVC120 WS010/22030KT
      TEMPO 3002/3006 -SHRA
     FM300600 24008KT P6SM BKN035 OVC080 WS010/25035KT
      TEMPO 3007/3011 6SM -SHRA BKN030
     FM301400 33013G22KT P6SM FEW030=



000
FTUS42 KCHS 291728
TAFSAV
TAF
KSAV 291728Z 2918/3018 19006KT P6SM BKN250
     FM300900 25011KT P6SM BKN040 OVC100
     FM301300 32013G20KT P6SM SKC=



000
FTUS42 KCHS 291728
TAFCHS
TAF
KCHS 291728Z 2918/3018 20008KT P6SM BKN250
     FM300900 26012KT P6SM BKN035 OVC100
     FM301300 33013G20KT P6SM SKC=



000
FTUS42 KCHS 291133
TAFSAV
TAF
KSAV 291133Z 2912/3012 00000KT P6SM SCT250
     FM291400 09005KT P6SM SCT250
     FM291700 16007KT P6SM SCT250
     FM300400 22008KT P6SM BKN150
     FM300900 25009KT P6SM SCT020 BKN040=



000
FTUS42 KCHS 291133
TAFCHS
TAF
KCHS 291133Z 2912/3012 09004KT P6SM SCT250
     FM291700 17007KT P6SM SCT250
     FM300300 22008KT P6SM BKN120
     FM300800 26010KT P6SM SCT015 BKN035=



    US Dept of Commerce
    National Oceanic and Atmospheric Administration
    National Weather Service
    1325 East West Highway
    Silver Spring, MD 20910
    Page Author: NWS Internet Services Team
Disclaimer
Information Quality
Credits
Glossary
Privacy Policy
Freedom of Information Act (FOIA)
About Us
Career Opportunities